Time;durP1;ratioP1;P1;durP2;ratioP2;P2;SDS_P1;SDS_P2;PMS_P1;PMS_P2;Temp;Humidity;BMP_temperature;BMP_pressure;BME280_temperature;BME280_humidity;BME280_pressure;Samples;Min_cycle;Max_cycle;Signal;HPM_P1;HPM_P2
2022/05/03 00:01:08;;;;;;;9.95;4.50;;;;;;;;;;5005727;28;20094;-77
2022/05/03 00:03:52;;;;;;;9.98;4.53;;;;;;;;;;5002520;28;20061;-77
2022/05/03 00:06:28;;;;;;;8.48;4.82;;;;;;;;;;5005988;28;20065;-77
2022/05/03 00:09:03;;;;;;;8.00;4.80;;;;;;;;;;5010799;28;20133;-77
2022/05/03 00:11:33;;;;;;;9.00;4.43;;;;;;;;;;5007990;28;20958;-77
2022/05/03 00:14:04;;;;;;;10.05;5.18;;;;;;;;;;5005336;28;20525;-76
2022/05/03 00:16:33;;;;;;;8.10;4.70;;;;;;;;;;5003552;28;20062;-76
2022/05/03 00:19:00;;;;;;;9.52;4.65;;;;;;;;;;5004542;28;20133;-77
2022/05/03 00:21:27;;;;;;;8.15;4.28;;;;;;;;;;5001313;28;20171;-77
2022/05/03 00:23:53;;;;;;;9.73;4.93;;;;;;;;;;5006857;28;20058;-77
2022/05/03 00:26:20;;;;;;;8.40;4.75;;;;;;;;;;5005329;28;20133;-76
2022/05/03 00:28:46;;;;;;;8.80;5.05;;;;;;;;;;5003962;28;20110;-77
2022/05/03 00:31:14;;;;;;;8.02;4.85;;;;;;;;;;5001132;28;20066;-77
2022/05/03 00:33:41;;;;;;;8.00;4.82;;;;;;;;;;5001201;28;20531;-77
2022/05/03 00:36:07;;;;;;;8.30;4.68;;;;;;;;;;5007883;28;20142;-77
2022/05/03 00:38:34;;;;;;;7.28;4.22;;;;;;;;;;5004742;28;20129;-77
2022/05/03 00:41:02;;;;;;;7.85;4.32;;;;;;;;;;5004244;28;20129;-77
2022/05/03 00:43:49;;;;;;;6.53;4.18;;;;;;;;;;5000651;28;20508;-77
2022/05/03 00:46:16;;;;;;;7.65;4.43;;;;;;;;;;4982935;28;20881;-77
2022/05/03 00:48:43;;;;;;;6.75;4.05;;;;;;;;;;5005814;28;20057;-77
2022/05/03 00:51:12;;;;;;;7.15;4.22;;;;;;;;;;5021269;28;20058;-77
2022/05/03 00:53:58;;;;;;;8.27;4.72;;;;;;;;;;4996897;28;20587;-77
2022/05/03 00:56:30;;;;;;;9.30;4.80;;;;;;;;;;5019844;28;20110;-77
2022/05/03 00:59:03;;;;;;;6.88;4.28;;;;;;;;;;5003330;28;20564;-77
2022/05/03 01:01:31;;;;;;;9.70;4.32;;;;;;;;;;5005222;28;20133;-77
2022/05/03 01:04:08;;;;;;;9.57;4.18;;;;;;;;;;5006486;28;20058;-77
2022/05/03 01:06:54;;;;;;;7.55;4.53;;;;;;;;;;5003432;28;20153;-77
2022/05/03 01:09:32;;;;;;;8.20;4.53;;;;;;;;;;5019051;28;20949;-77
2022/05/03 01:12:01;;;;;;;7.75;4.22;;;;;;;;;;5003777;28;20122;-77
2022/05/03 01:14:46;;;;;;;10.52;4.78;;;;;;;;;;5001218;28;20137;-77
2022/05/03 01:17:27;;;;;;;8.20;4.55;;;;;;;;;;5001606;28;20080;-77
2022/05/03 01:20:04;;;;;;;8.15;4.90;;;;;;;;;;5001347;28;20532;-77
2022/05/03 01:22:51;;;;;;;7.75;4.30;;;;;;;;;;5003809;28;20146;-77
2022/05/03 01:25:20;;;;;;;8.77;4.55;;;;;;;;;;5001759;28;20088;-77
2022/05/03 01:28:00;;;;;;;7.78;4.35;;;;;;;;;;5005268;28;20102;-77
2022/05/03 01:30:31;;;;;;;8.23;4.47;;;;;;;;;;5001065;28;20149;-77
2022/05/03 01:33:01;;;;;;;7.78;4.25;;;;;;;;;;5003302;28;20058;-77
2022/05/03 01:35:33;;;;;;;9.65;4.50;;;;;;;;;;5005710;28;20154;-77
2022/05/03 01:38:00;;;;;;;8.07;4.30;;;;;;;;;;5022728;28;20116;-77
2022/05/03 01:40:34;;;;;;;7.88;4.18;;;;;;;;;;5003126;28;20645;-77
2022/05/03 01:43:03;;;;;;;7.50;4.60;;;;;;;;;;5002712;28;20144;-77
2022/05/03 01:45:31;;;;;;;9.55;4.32;;;;;;;;;;4999224;28;20063;-77
2022/05/03 01:48:00;;;;;;;7.63;4.10;;;;;;;;;;5018707;28;20055;-77
2022/05/03 01:50:38;;;;;;;7.68;4.47;;;;;;;;;;5019197;28;20060;-76
2022/05/03 01:53:12;;;;;;;6.88;4.32;;;;;;;;;;5000652;28;20235;-77
2022/05/03 01:55:56;;;;;;;9.55;5.05;;;;;;;;;;5003828;28;20069;-77
2022/05/03 01:58:35;;;;;;;12.07;4.60;;;;;;;;;;5002582;28;20531;-77
2022/05/03 02:01:20;;;;;;;7.88;4.35;;;;;;;;;;5004531;28;20348;-77
2022/05/03 02:03:53;;;;;;;6.97;4.15;;;;;;;;;;5006012;28;20058;-76
2022/05/03 02:06:32;;;;;;;8.38;4.30;;;;;;;;;;4999353;28;20066;-76
2022/05/03 02:09:05;;;;;;;8.75;4.43;;;;;;;;;;5000874;28;20062;-77
2022/05/03 02:11:32;;;;;;;9.10;4.68;;;;;;;;;;4998882;28;20137;-77
2022/05/03 02:17:49;;;;;;;7.45;4.30;;;;;;;;;;4938996;28;20995;-76
2022/05/03 02:20:34;;;;;;;8.43;4.55;;;;;;;;;;4940227;28;20163;-77
2022/05/03 02:23:05;;;;;;;9.02;4.63;;;;;;;;;;4988618;28;20121;-77
2022/05/03 02:25:35;;;;;;;8.50;4.78;;;;;;;;;;5007265;28;20084;-77
2022/05/03 02:28:01;;;;;;;8.35;4.03;;;;;;;;;;5024553;28;20050;-76
2022/05/03 02:30:31;;;;;;;8.48;4.25;;;;;;;;;;5008341;28;20058;-77
2022/05/03 02:33:04;;;;;;;9.05;4.63;;;;;;;;;;5008606;28;20050;-77
2022/05/03 02:35:32;;;;;;;8.10;4.38;;;;;;;;;;5004724;28;20054;-78
2022/05/03 02:38:02;;;;;;;6.97;4.35;;;;;;;;;;5005012;28;20539;-76
2022/05/03 02:40:29;;;;;;;7.07;4.00;;;;;;;;;;4988044;28;20054;-77
2022/05/03 02:42:58;;;;;;;8.10;4.80;;;;;;;;;;5005016;28;20148;-76
2022/05/03 02:45:25;;;;;;;8.18;4.15;;;;;;;;;;5006659;28;20524;-76
2022/05/03 02:47:57;;;;;;;9.23;4.72;;;;;;;;;;5007097;28;20074;-76
2022/05/03 02:50:28;;;;;;;7.30;4.18;;;;;;;;;;5004676;28;20051;-77
2022/05/03 02:53:07;;;;;;;9.75;4.30;;;;;;;;;;5007986;28;20138;-76
2022/05/03 02:55:49;;;;;;;8.32;4.47;;;;;;;;;;5005467;28;20141;-77
2022/05/03 02:58:19;;;;;;;8.43;4.32;;;;;;;;;;5018115;28;20065;-77
2022/05/03 03:03:44;;;;;;;9.00;5.00;;;;;;;;;;5005308;28;20061;-77
2022/05/03 03:06:30;;;;;;;8.57;4.82;;;;;;;;;;5004828;28;20081;-77
2022/05/03 03:08:57;;;;;;;10.20;4.60;;;;;;;;;;5000293;28;20168;-76
2022/05/03 03:11:23;;;;;;;11.23;4.72;;;;;;;;;;5005273;28;20064;-77
2022/05/03 03:13:53;;;;;;;8.90;4.55;;;;;;;;;;5021970;28;20063;-76
2022/05/03 03:16:25;;;;;;;9.73;4.85;;;;;;;;;;5021834;28;20058;-77
2022/05/03 03:18:56;;;;;;;8.85;4.50;;;;;;;;;;5020662;28;20065;-77
2022/05/03 03:21:24;;;;;;;10.07;4.50;;;;;;;;;;5006316;28;20070;-76
2022/05/03 03:23:51;;;;;;;8.25;4.85;;;;;;;;;;5006742;28;20058;-77
2022/05/03 03:26:20;;;;;;;8.60;4.32;;;;;;;;;;5002799;28;20096;-76
2022/05/03 03:28:47;;;;;;;7.80;4.38;;;;;;;;;;5002444;28;20077;-77
2022/05/03 03:31:15;;;;;;;8.88;4.60;;;;;;;;;;5005872;28;20165;-77
2022/05/03 03:33:41;;;;;;;9.30;5.25;;;;;;;;;;5006554;28;20097;-77
2022/05/03 03:36:08;;;;;;;9.13;5.28;;;;;;;;;;5007871;28;20072;-77
2022/05/03 03:38:43;;;;;;;9.35;5.30;;;;;;;;;;5005398;28;20145;-76
2022/05/03 03:41:09;;;;;;;13.18;5.57;;;;;;;;;;5003080;28;20133;-77
2022/05/03 03:43:36;;;;;;;10.98;5.40;;;;;;;;;;5002603;28;20109;-77
2022/05/03 03:46:02;;;;;;;8.85;5.05;;;;;;;;;;5004458;28;20137;-77
2022/05/03 03:48:29;;;;;;;10.63;5.05;;;;;;;;;;5005836;28;20054;-76
2022/05/03 03:50:56;;;;;;;9.80;5.20;;;;;;;;;;5007315;28;20094;-77
2022/05/03 03:53:22;;;;;;;11.27;5.20;;;;;;;;;;5006568;28;20584;-76
2022/05/03 03:55:49;;;;;;;10.27;5.35;;;;;;;;;;5003455;28;20054;-76
2022/05/03 03:58:15;;;;;;;9.68;5.05;;;;;;;;;;5021540;28;20563;-77
2022/05/03 04:00:42;;;;;;;10.88;5.65;;;;;;;;;;5007446;28;20141;-76
2022/05/03 04:03:08;;;;;;;11.77;5.72;;;;;;;;;;5008264;28;20054;-77
2022/05/03 04:05:35;;;;;;;12.75;5.97;;;;;;;;;;4982262;28;20100;-76
2022/05/03 04:08:01;;;;;;;9.60;5.47;;;;;;;;;;4989109;28;20054;-76
2022/05/03 04:10:28;;;;;;;8.07;4.93;;;;;;;;;;5004958;28;20530;-77
2022/05/03 04:12:54;;;;;;;10.20;5.60;;;;;;;;;;5005780;28;20043;-77
2022/05/03 04:15:21;;;;;;;10.43;5.40;;;;;;;;;;5006578;28;20511;-77
2022/05/03 04:17:47;;;;;;;12.57;6.00;;;;;;;;;;5004946;28;20055;-76
2022/05/03 04:20:15;;;;;;;11.95;5.45;;;;;;;;;;5006307;28;20065;-77
2022/05/03 04:22:42;;;;;;;12.93;5.20;;;;;;;;;;5025016;28;20174;-77
2022/05/03 04:25:08;;;;;;;9.85;5.57;;;;;;;;;;5004481;28;20133;-77
2022/05/03 04:27:35;;;;;;;10.40;5.53;;;;;;;;;;5007669;28;20060;-77
2022/05/03 04:30:02;;;;;;;9.93;5.50;;;;;;;;;;5010285;28;20174;-78
2022/05/03 04:32:29;;;;;;;9.85;5.63;;;;;;;;;;5011718;28;20066;-77
2022/05/03 04:34:56;;;;;;;9.70;5.82;;;;;;;;;;5009280;28;20724;-76
2022/05/03 04:37:22;;;;;;;13.45;5.53;;;;;;;;;;5009521;28;20045;-77
2022/05/03 04:39:49;;;;;;;9.32;5.13;;;;;;;;;;5009015;28;20077;-77
2022/05/03 04:42:16;;;;;;;10.30;5.53;;;;;;;;;;5010539;28;20050;-77
2022/05/03 04:44:42;;;;;;;10.68;5.45;;;;;;;;;;5007875;28;20141;-76
2022/05/03 04:47:09;;;;;;;10.10;5.57;;;;;;;;;;5006183;28;20149;-77
2022/05/03 04:49:35;;;;;;;10.18;5.35;;;;;;;;;;5008008;28;20050;-77
2022/05/03 04:52:02;;;;;;;10.13;4.97;;;;;;;;;;5009385;28;20137;-76
2022/05/03 04:54:28;;;;;;;11.95;5.75;;;;;;;;;;5008187;28;20539;-77
2022/05/03 04:57:00;;;;;;;12.50;5.57;;;;;;;;;;5008659;28;20403;-77
2022/05/03 04:59:27;;;;;;;12.30;6.13;;;;;;;;;;5007227;28;20130;-76
2022/05/03 05:01:53;;;;;;;12.63;6.22;;;;;;;;;;5007929;28;20089;-77
2022/05/03 05:04:20;;;;;;;9.88;5.72;;;;;;;;;;5007527;28;20043;-76
2022/05/03 05:06:46;;;;;;;9.50;5.95;;;;;;;;;;5006850;28;20137;-75
2022/05/03 05:09:18;;;;;;;10.75;5.60;;;;;;;;;;5002472;28;20433;-75
2022/05/03 05:11:45;;;;;;;12.25;5.32;;;;;;;;;;5018524;28;20068;-76
2022/05/03 05:14:11;;;;;;;13.80;6.32;;;;;;;;;;5001180;28;20056;-76
2022/05/03 05:16:37;;;;;;;10.48;5.43;;;;;;;;;;5002562;28;20055;-76
2022/05/03 05:19:04;;;;;;;10.45;6.10;;;;;;;;;;5003199;28;20493;-76
2022/05/03 05:21:30;;;;;;;9.98;6.13;;;;;;;;;;5004345;28;20054;-75
2022/05/03 05:23:57;;;;;;;13.27;6.38;;;;;;;;;;5004866;28;20559;-76
2022/05/03 05:26:23;;;;;;;11.43;5.63;;;;;;;;;;5003587;28;20046;-76
2022/05/03 05:28:49;;;;;;;10.10;6.40;;;;;;;;;;5000522;28;20074;-76
2022/05/03 05:31:16;;;;;;;13.07;7.63;;;;;;;;;;5001271;28;20054;-76
2022/05/03 05:33:42;;;;;;;13.57;6.93;;;;;;;;;;5004445;28;20552;-77
2022/05/03 05:36:08;;;;;;;11.90;6.88;;;;;;;;;;5002575;28;20086;-77
2022/05/03 05:38:35;;;;;;;12.27;6.80;;;;;;;;;;5009990;28;20051;-77
2022/05/03 05:41:10;;;;;;;14.25;7.10;;;;;;;;;;5005129;28;20152;-76
2022/05/03 05:43:36;;;;;;;14.38;6.57;;;;;;;;;;5002803;28;20064;-76
2022/05/03 05:46:03;;;;;;;11.40;7.05;;;;;;;;;;4998088;28;20086;-76
2022/05/03 05:48:29;;;;;;;14.02;7.00;;;;;;;;;;5000067;28;20065;-77
2022/05/03 05:50:55;;;;;;;13.77;7.00;;;;;;;;;;4989021;28;20285;-75
2022/05/03 05:53:34;;;;;;;11.57;6.85;;;;;;;;;;4992253;28;20304;-76
2022/05/03 05:56:02;;;;;;;13.98;7.60;;;;;;;;;;5006296;28;20177;-77
2022/05/03 05:58:29;;;;;;;11.27;6.80;;;;;;;;;;5007173;28;20123;-76
2022/05/03 06:00:56;;;;;;;12.18;7.25;;;;;;;;;;5010264;28;20524;-77
2022/05/03 06:03:22;;;;;;;14.40;6.78;;;;;;;;;;5013933;28;20112;-76
2022/05/03 06:05:49;;;;;;;14.48;7.38;;;;;;;;;;5012038;28;20129;-77
2022/05/03 06:08:15;;;;;;;11.95;6.80;;;;;;;;;;5010860;28;20125;-77
2022/05/03 06:10:42;;;;;;;11.30;7.40;;;;;;;;;;5010050;28;20058;-77
2022/05/03 06:13:10;;;;;;;13.23;7.47;;;;;;;;;;5010533;28;20052;-77
2022/05/03 06:15:37;;;;;;;11.95;7.20;;;;;;;;;;5009600;28;20708;-77
2022/05/03 06:18:04;;;;;;;16.40;7.75;;;;;;;;;;5009970;28;20471;-77
2022/05/03 06:20:30;;;;;;;12.80;7.28;;;;;;;;;;5008812;28;20508;-77
2022/05/03 06:22:57;;;;;;;11.98;6.88;;;;;;;;;;5012902;28;20124;-77
2022/05/03 06:25:23;;;;;;;12.75;7.30;;;;;;;;;;5020950;28;20651;-77
2022/05/03 06:27:51;;;;;;;14.18;6.97;;;;;;;;;;5024518;28;20085;-77
2022/05/03 06:30:17;;;;;;;13.40;7.35;;;;;;;;;;5013457;28;20093;-77
2022/05/03 06:32:44;;;;;;;14.05;7.00;;;;;;;;;;5012872;28;20046;-77
2022/05/03 06:35:11;;;;;;;11.32;7.13;;;;;;;;;;5013041;28;20081;-77
2022/05/03 06:37:38;;;;;;;12.77;6.70;;;;;;;;;;5012975;28;20076;-77
2022/05/03 06:40:06;;;;;;;13.45;7.13;;;;;;;;;;5009180;28;20053;-76
2022/05/03 06:42:36;;;;;;;14.30;7.85;;;;;;;;;;5006469;28;20066;-76
2022/05/03 06:45:03;;;;;;;12.98;6.78;;;;;;;;;;5004209;28;20059;-76
2022/05/03 06:47:30;;;;;;;12.90;7.30;;;;;;;;;;5005976;28;20141;-76
2022/05/03 06:49:56;;;;;;;16.52;7.43;;;;;;;;;;5002515;28;20054;-76
2022/05/03 06:52:23;;;;;;;14.07;7.35;;;;;;;;;;5004043;28;20574;-76
2022/05/03 06:54:50;;;;;;;11.85;6.55;;;;;;;;;;5002820;28;20061;-77
2022/05/03 06:57:16;;;;;;;12.40;6.20;;;;;;;;;;4999606;28;20055;-76
2022/05/03 06:59:42;;;;;;;10.95;6.70;;;;;;;;;;5003027;28;20170;-76
2022/05/03 07:02:09;;;;;;;12.00;7.50;;;;;;;;;;5001383;28;20604;-77
2022/05/03 07:04:35;;;;;;;15.27;8.57;;;;;;;;;;5003647;28;20054;-77
2022/05/03 07:07:01;;;;;;;16.85;8.90;;;;;;;;;;5007279;28;20490;-77
2022/05/03 07:09:28;;;;;;;12.35;7.20;;;;;;;;;;5011678;28;20101;-77
2022/05/03 07:11:54;;;;;;;15.70;7.55;;;;;;;;;;5006133;28;20089;-77
2022/05/03 07:14:22;;;;;;;13.82;7.07;;;;;;;;;;5013669;28;20082;-78
2022/05/03 07:16:48;;;;;;;14.25;7.18;;;;;;;;;;5012637;28;20467;-78
2022/05/03 07:24:45;;;;;;;13.20;7.90;;;;;;;;;;5008087;28;20145;-78
2022/05/03 07:27:13;;;;;;;30.08;8.38;;;;;;;;;;5006417;28;20487;-78
2022/05/03 07:29:39;;;;;;;51.00;9.90;;;;;;;;;;5009131;28;20054;-78
2022/05/03 07:32:06;;;;;;;15.07;8.30;;;;;;;;;;5007394;28;20054;-78
2022/05/03 07:34:32;;;;;;;15.30;8.43;;;;;;;;;;5007164;28;20058;-78
2022/05/03 07:36:58;;;;;;;154.45;15.40;;;;;;;;;;5008047;28;20137;-78
2022/05/03 07:39:25;;;;;;;35.53;9.45;;;;;;;;;;5006515;28;20093;-79
2022/05/03 07:41:53;;;;;;;24.27;9.50;;;;;;;;;;5004241;28;20085;-77
2022/05/03 07:44:20;;;;;;;20.02;9.57;;;;;;;;;;5004131;28;20140;-78
2022/05/03 07:46:46;;;;;;;15.63;9.80;;;;;;;;;;5001252;28;20126;-78
2022/05/03 07:49:13;;;;;;;19.17;11.30;;;;;;;;;;5001864;28;20899;-78
2022/05/03 07:51:40;;;;;;;18.40;12.05;;;;;;;;;;5002542;28;20052;-78
2022/05/03 07:54:07;;;;;;;17.20;10.90;;;;;;;;;;5003208;28;20145;-78
2022/05/03 07:56:33;;;;;;;19.27;11.55;;;;;;;;;;5002048;28;20081;-78
2022/05/03 07:59:00;;;;;;;19.33;11.80;;;;;;;;;;5002200;28;20054;-77
2022/05/03 08:01:26;;;;;;;19.48;12.20;;;;;;;;;;5002876;28;20060;-77
2022/05/03 08:03:52;;;;;;;18.38;12.25;;;;;;;;;;5001647;28;20062;-78
2022/05/03 08:06:19;;;;;;;33.25;12.70;;;;;;;;;;5003703;28;20145;-78
2022/05/03 08:08:45;;;;;;;18.92;11.15;;;;;;;;;;5001010;28;20061;-77
2022/05/03 08:11:11;;;;;;;22.10;12.65;;;;;;;;;;4998937;28;20461;-77
2022/05/03 08:13:42;;;;;;;18.90;12.73;;;;;;;;;;5003254;28;20054;-78
2022/05/03 08:16:19;;;;;;;21.13;13.90;;;;;;;;;;5002891;28;20777;-77
2022/05/03 08:18:46;;;;;;;19.67;13.10;;;;;;;;;;4999770;28;20059;-76
2022/05/03 08:21:15;;;;;;;21.40;12.02;;;;;;;;;;5005254;28;20559;-76
2022/05/03 08:23:42;;;;;;;19.05;12.50;;;;;;;;;;5002864;28;20050;-78
2022/05/03 08:26:09;;;;;;;20.70;13.18;;;;;;;;;;5002674;28;20059;-75
2022/05/03 08:28:35;;;;;;;24.17;13.65;;;;;;;;;;5001150;28;20054;-77
2022/05/03 08:31:02;;;;;;;22.58;13.52;;;;;;;;;;5001549;28;20050;-75
2022/05/03 08:33:29;;;;;;;20.65;13.23;;;;;;;;;;4998603;28;20460;-76
2022/05/03 08:35:56;;;;;;;20.42;13.85;;;;;;;;;;5001830;28;20613;-76
2022/05/03 08:43:52;;;;;;;21.40;13.40;;;;;;;;;;5002831;28;20162;-74
2022/05/03 08:46:21;;;;;;;22.40;14.43;;;;;;;;;;5002845;28;20058;-75
2022/05/03 08:48:52;;;;;;;22.63;14.38;;;;;;;;;;4966716;28;1050945;-75
2022/05/03 08:51:18;;;;;;;;;;;;;;;;;;5005361;28;20113;-75
2022/05/03 08:53:45;;;;;;;19.80;12.55;;;;;;;;;;5002189;28;43760;-75
2022/05/03 08:56:11;;;;;;;20.42;12.95;;;;;;;;;;5004783;28;20142;-75
2022/05/03 08:58:38;;;;;;;23.52;13.98;;;;;;;;;;4999067;28;20917;-75
2022/05/03 09:01:04;;;;;;;20.20;13.25;;;;;;;;;;5001063;28;20060;-75
2022/05/03 09:03:31;;;;;;;19.55;13.35;;;;;;;;;;5002806;28;20108;-75
2022/05/03 09:05:57;;;;;;;19.65;13.27;;;;;;;;;;5001932;28;20246;-75
2022/05/03 09:08:24;;;;;;;18.88;13.07;;;;;;;;;;5000460;28;20055;-75
2022/05/03 09:10:53;;;;;;;21.20;12.05;;;;;;;;;;4995572;28;20536;-76
2022/05/03 09:13:40;;;;;;;15.27;10.45;;;;;;;;;;5000463;28;20294;-76
2022/05/03 09:16:14;;;;;;;18.50;12.05;;;;;;;;;;5000275;28;20062;-76
2022/05/03 09:18:41;;;;;;;18.55;12.55;;;;;;;;;;5014026;28;20086;-76
2022/05/03 09:24:12;;;;;;;19.33;13.15;;;;;;;;;;4998050;28;20546;-76
2022/05/03 09:26:39;;;;;;;18.38;12.48;;;;;;;;;;4997318;28;20553;-76
2022/05/03 09:29:09;;;;;;;19.73;13.55;;;;;;;;;;4996790;28;20527;-76
2022/05/03 09:31:46;;;;;;;21.65;12.68;;;;;;;;;;5000279;28;20591;-76
2022/05/03 09:34:19;;;;;;;21.52;12.48;;;;;;;;;;5001238;28;20532;-76
2022/05/03 09:36:49;;;;;;;20.40;13.27;;;;;;;;;;4996225;28;20051;-76
2022/05/03 09:39:31;;;;;;;19.42;12.98;;;;;;;;;;4999339;28;20133;-76
2022/05/03 09:42:08;;;;;;;20.10;13.82;;;;;;;;;;5003774;28;20058;-76
2022/05/03 09:44:36;;;;;;;19.73;14.15;;;;;;;;;;5003961;28;20062;-75
2022/05/03 09:47:08;;;;;;;20.23;13.05;;;;;;;;;;5002000;28;20499;-75
2022/05/03 09:49:36;;;;;;;21.40;12.25;;;;;;;;;;5005022;28;20054;-76
2022/05/03 09:52:03;;;;;;;19.70;12.63;;;;;;;;;;5005547;28;20743;-76
2022/05/03 09:54:46;;;;;;;22.98;15.02;;;;;;;;;;5002062;28;20310;-76
2022/05/03 09:57:16;;;;;;;22.70;14.90;;;;;;;;;;5005357;28;20104;-76
2022/05/03 09:59:43;;;;;;;21.20;15.20;;;;;;;;;;5002291;28;20569;-76
2022/05/03 10:02:10;;;;;;;21.63;13.63;;;;;;;;;;4998994;28;20505;-75
2022/05/03 10:04:36;;;;;;;22.42;13.60;;;;;;;;;;4997074;28;20054;-76
2022/05/03 10:07:03;;;;;;;21.30;12.68;;;;;;;;;;4996768;28;21925;-75
2022/05/03 10:09:30;;;;;;;19.67;13.27;;;;;;;;;;5000580;28;20054;-76
2022/05/03 10:11:56;;;;;;;19.30;12.80;;;;;;;;;;5004620;28;20537;-76
2022/05/03 10:14:22;;;;;;;19.52;13.18;;;;;;;;;;5000061;28;20050;-76
2022/05/03 10:22:22;;;;;;;19.27;11.98;;;;;;;;;;5005281;28;20058;-76
2022/05/03 10:24:52;;;;;;;17.25;11.23;;;;;;;;;;5003691;28;20054;-75
2022/05/03 10:27:22;;;;;;;19.35;12.18;;;;;;;;;;5003261;28;20055;-75
2022/05/03 10:30:07;;;;;;;18.57;12.07;;;;;;;;;;5001395;28;20050;-75
2022/05/03 10:32:33;;;;;;;19.00;13.40;;;;;;;;;;4999364;28;20137;-75
2022/05/03 10:34:59;;;;;;;15.88;11.05;;;;;;;;;;5003418;28;20528;-75
2022/05/03 10:37:28;;;;;;;19.52;12.88;;;;;;;;;;4987196;28;20058;-75
2022/05/03 10:39:55;;;;;;;15.65;10.88;;;;;;;;;;4993733;28;20145;-75
2022/05/03 10:42:23;;;;;;;17.48;10.80;;;;;;;;;;4993452;28;20066;-75
2022/05/03 10:44:52;;;;;;;16.08;11.30;;;;;;;;;;5002104;28;20133;-75
2022/05/03 10:47:21;;;;;;;17.10;12.10;;;;;;;;;;5002971;28;20126;-75
2022/05/03 10:50:06;;;;;;;16.95;12.02;;;;;;;;;;5001716;28;20721;-75
2022/05/03 10:52:32;;;;;;;15.63;10.82;;;;;;;;;;5004456;28;21025;-75
2022/05/03 10:55:09;;;;;;;18.48;12.73;;;;;;;;;;5004075;28;20061;-75
2022/05/03 10:58:14;;;;;;;14.05;10.30;;;;;;;;;;5020756;28;20547;-75
2022/05/03 11:00:59;;;;;;;14.73;10.30;;;;;;;;;;4981443;28;20047;-75
2022/05/03 11:03:25;;;;;;;15.48;10.38;;;;;;;;;;4983816;28;20085;-75
2022/05/03 11:06:25;;;;;;;18.38;11.73;;;;;;;;;;4997081;28;20058;-75
2022/05/03 11:11:42;;;;;;;16.30;10.73;;;;;;;;;;5003131;28;20182;-75
2022/05/03 11:14:21;;;;;;;14.98;9.50;;;;;;;;;;5006344;28;20058;-75
2022/05/03 11:17:04;;;;;;;14.93;9.45;;;;;;;;;;5004530;28;20089;-75
2022/05/03 11:19:39;;;;;;;15.85;10.25;;;;;;;;;;5004933;28;20058;-75
2022/05/03 11:22:13;;;;;;;16.42;10.68;;;;;;;;;;5000671;28;20050;-75
2022/05/03 11:24:43;;;;;;;14.77;9.88;;;;;;;;;;5003764;28;20882;-75
2022/05/03 11:27:10;;;;;;;17.38;10.52;;;;;;;;;;5005770;28;20677;-75
2022/05/03 11:29:39;;;;;;;14.43;10.02;;;;;;;;;;5004781;28;20866;-75
2022/05/03 11:32:08;;;;;;;16.20;10.40;;;;;;;;;;5005685;28;20060;-76
2022/05/03 11:34:35;;;;;;;16.67;10.50;;;;;;;;;;5000668;28;20060;-75
2022/05/03 11:37:03;;;;;;;16.23;11.00;;;;;;;;;;4999895;28;20061;-75
2022/05/03 11:39:30;;;;;;;13.35;8.80;;;;;;;;;;4997612;28;20134;-76
2022/05/03 11:41:56;;;;;;;16.10;9.35;;;;;;;;;;4996652;28;20061;-78
2022/05/03 11:44:23;;;;;;;13.23;8.32;;;;;;;;;;4999116;28;20055;-76
2022/05/03 11:46:49;;;;;;;13.80;9.25;;;;;;;;;;4998482;28;20060;-77
2022/05/03 11:49:16;;;;;;;11.70;7.95;;;;;;;;;;5002632;28;20058;-77
2022/05/03 11:57:32;;;;;;;12.77;8.90;;;;;;;;;;5007159;28;20107;-77
2022/05/03 11:59:59;;;;;;;18.90;11.30;;;;;;;;;;4998260;28;20054;-79
2022/05/03 12:02:27;;;;;;;21.25;13.75;;;;;;;;;;4996899;28;20066;-77
2022/05/03 12:05:02;;;;;;;27.00;16.60;;;;;;;;;;4997356;28;20140;-77
2022/05/03 12:07:29;;;;;;;26.55;16.63;;;;;;;;;;5015331;28;20059;-77
2022/05/03 12:09:55;;;;;;;26.75;15.63;;;;;;;;;;4999662;28;20069;-77
2022/05/03 12:12:43;;;;;;;25.88;16.02;;;;;;;;;;4993739;28;20493;-76
2022/05/03 12:15:13;;;;;;;26.67;15.80;;;;;;;;;;4993283;28;20097;-76
2022/05/03 12:17:59;;;;;;;29.90;17.02;;;;;;;;;;4990002;28;20559;-78
2022/05/03 12:20:39;;;;;;;27.08;16.73;;;;;;;;;;4988792;28;20105;-76
2022/05/03 12:23:10;;;;;;;30.70;16.85;;;;;;;;;;4991965;28;20145;-75
2022/05/03 12:25:36;;;;;;;;;;;;;;;;;;4988596;28;20519;-76
2022/05/03 12:28:06;;;;;;;29.35;16.70;;;;;;;;;;4999161;28;46419;-76
2022/05/03 12:30:32;;;;;;;30.30;17.17;;;;;;;;;;4998555;28;20571;-76
2022/05/03 12:33:06;;;;;;;28.52;15.32;;;;;;;;;;4993081;28;20137;-77
2022/05/03 12:35:34;;;;;;;31.92;16.35;;;;;;;;;;5000049;28;20050;-77
2022/05/03 12:38:14;;;;;;;31.80;17.25;;;;;;;;;;4980091;28;20062;-76
2022/05/03 12:40:44;;;;;;;27.95;14.52;;;;;;;;;;4994524;28;20214;-77
2022/05/03 12:43:14;;;;;;;27.90;15.18;;;;;;;;;;4996665;28;20058;-77
2022/05/03 12:45:40;;;;;;;24.98;13.90;;;;;;;;;;5013495;28;20054;-76
2022/05/03 12:48:07;;;;;;;26.02;13.48;;;;;;;;;;4997915;28;20085;-77
2022/05/03 12:50:33;;;;;;;25.75;14.52;;;;;;;;;;5001323;28;20054;-76
2022/05/03 12:53:00;;;;;;;28.15;14.20;;;;;;;;;;5010808;28;20177;-77
2022/05/03 12:55:26;;;;;;;26.98;14.57;;;;;;;;;;4995627;28;20066;-77
2022/05/03 13:00:39;;;;;;;26.65;14.60;;;;;;;;;;4995287;28;20062;-77
2022/05/03 13:03:10;;;;;;;28.45;14.35;;;;;;;;;;4997937;28;20058;-77
2022/05/03 13:05:37;;;;;;;28.52;13.23;;;;;;;;;;4998818;28;20513;-77
2022/05/03 13:08:03;;;;;;;24.50;12.70;;;;;;;;;;4996719;28;20059;-77
2022/05/03 13:10:29;;;;;;;23.75;12.55;;;;;;;;;;5000459;28;20453;-76
2022/05/03 13:12:56;;;;;;;23.77;12.38;;;;;;;;;;5004799;28;20535;-76
2022/05/03 13:15:22;;;;;;;22.10;11.27;;;;;;;;;;4991835;28;20082;-76
2022/05/03 13:17:48;;;;;;;21.08;11.30;;;;;;;;;;4990744;28;20055;-76
2022/05/03 13:20:15;;;;;;;24.48;12.20;;;;;;;;;;4996448;28;20058;-76
2022/05/03 13:22:41;;;;;;;22.00;10.35;;;;;;;;;;5000278;28;20086;-76
2022/05/03 13:25:08;;;;;;;20.95;10.25;;;;;;;;;;5006553;28;20286;-76
2022/05/03 13:27:34;;;;;;;20.98;10.85;;;;;;;;;;5039199;28;20141;-77
2022/05/03 13:30:00;;;;;;;19.27;10.70;;;;;;;;;;5017784;28;20065;-77
2022/05/03 13:32:28;;;;;;;24.25;11.40;;;;;;;;;;5001462;28;20141;-77
2022/05/03 13:34:56;;;;;;;19.75;9.80;;;;;;;;;;5017594;28;20065;-77
2022/05/03 13:42:54;;;;;;;17.15;9.48;;;;;;;;;;4992321;28;20058;-77
2022/05/03 13:45:20;;;;;;;20.40;9.73;;;;;;;;;;4993062;28;20055;-76
2022/05/03 13:48:07;;;;;;;19.55;9.65;;;;;;;;;;4989221;28;20081;-76
2022/05/03 13:50:33;;;;;;;19.63;10.18;;;;;;;;;;4993844;28;20082;-77
2022/05/03 13:52:59;;;;;;;20.13;9.85;;;;;;;;;;4996477;28;20069;-77
2022/05/03 13:55:26;;;;;;;22.25;9.95;;;;;;;;;;5018101;28;20054;-77
2022/05/03 13:57:52;;;;;;;18.30;9.40;;;;;;;;;;4996994;28;20696;-76
2022/05/03 14:00:18;;;;;;;21.15;10.30;;;;;;;;;;4986798;28;20164;-77
2022/05/03 14:02:45;;;;;;;19.75;9.18;;;;;;;;;;4993660;28;20158;-77
2022/05/03 14:05:12;;;;;;;16.33;9.00;;;;;;;;;;4995324;28;20611;-77
2022/05/03 14:07:38;;;;;;;24.58;10.05;;;;;;;;;;4990094;28;20058;-77
2022/05/03 14:10:06;;;;;;;17.65;9.30;;;;;;;;;;4991253;28;20109;-77
2022/05/03 14:12:32;;;;;;;22.60;9.45;;;;;;;;;;4989700;28;20077;-77
2022/05/03 14:14:59;;;;;;;27.05;10.32;;;;;;;;;;4993275;28;20097;-77
2022/05/03 14:17:27;;;;;;;21.50;9.20;;;;;;;;;;5008941;28;20059;-77
2022/05/03 14:19:54;;;;;;;20.73;9.20;;;;;;;;;;4992228;28;20141;-77
2022/05/03 14:22:20;;;;;;;18.35;8.25;;;;;;;;;;4992440;28;20084;-77
2022/05/03 14:24:47;;;;;;;28.00;8.98;;;;;;;;;;4999004;28;20054;-76
2022/05/03 14:27:14;;;;;;;19.05;8.80;;;;;;;;;;5000303;28;20658;-77
2022/05/03 14:29:40;;;;;;;22.50;8.55;;;;;;;;;;5009623;28;20826;-77
2022/05/03 14:32:07;;;;;;;24.40;8.95;;;;;;;;;;4995273;28;20185;-77
2022/05/03 14:34:34;;;;;;;23.90;8.98;;;;;;;;;;4998276;28;20059;-77
2022/05/03 14:37:00;;;;;;;23.25;8.63;;;;;;;;;;4999322;28;20054;-77
2022/05/03 14:39:27;;;;;;;20.67;9.05;;;;;;;;;;5003255;28;20090;-77
2022/05/03 14:41:59;;;;;;;28.05;9.02;;;;;;;;;;5012938;28;20054;-77
2022/05/03 14:44:25;;;;;;;19.58;8.82;;;;;;;;;;4999724;28;20058;-77
2022/05/03 14:46:52;;;;;;;25.33;9.30;;;;;;;;;;4985914;28;20524;-77
2022/05/03 14:49:18;;;;;;;19.33;8.02;;;;;;;;;;4992563;28;20149;-77
2022/05/03 14:51:44;;;;;;;22.63;9.00;;;;;;;;;;4999369;28;20817;-77
2022/05/03 14:54:11;;;;;;;21.60;9.00;;;;;;;;;;5001565;28;20062;-77
2022/05/03 15:04:55;;;;;;;18.73;9.02;;;;;;;;;;5004984;28;20164;-77
2022/05/03 15:07:21;;;;;;;17.52;8.63;;;;;;;;;;5010265;28;20137;-77
2022/05/03 15:09:48;;;;;;;17.75;8.35;;;;;;;;;;5019125;28;20439;-77
2022/05/03 15:12:14;;;;;;;21.50;9.00;;;;;;;;;;5003181;28;20141;-77
2022/05/03 15:14:40;;;;;;;15.95;7.93;;;;;;;;;;4997079;28;20062;-78
2022/05/03 15:17:07;;;;;;;17.50;7.70;;;;;;;;;;5010877;28;20065;-77
2022/05/03 15:19:33;;;;;;;17.98;8.10;;;;;;;;;;5004843;28;20069;-77
2022/05/03 15:21:59;;;;;;;16.23;7.75;;;;;;;;;;5002647;28;20054;-77
2022/05/03 15:24:38;;;;;;;16.92;8.00;;;;;;;;;;5019526;28;20145;-77
2022/05/03 15:27:05;;;;;;;14.85;7.45;;;;;;;;;;5000688;28;20302;-77
2022/05/03 15:29:32;;;;;;;19.77;7.80;;;;;;;;;;5004179;28;20867;-77
2022/05/03 15:32:25;;;;;;;19.67;8.30;;;;;;;;;;5002644;28;20150;-77